Time;durP1;ratioP1;P1;durP2;ratioP2;P2;SDS_P1;SDS_P2;PMS_P1;PMS_P2;Temp;Humidity;BMP_temperature;BMP_pressure;BME280_temperature;BME280_humidity;BME280_pressure;Samples;Min_cycle;Max_cycle;Signal;HPM_P1;HPM_P2
2022/05/18 00:00:27;;;;;;;10.32;6.38;;;;;;;15.77;100.00;101288.94;5241823;28;20526;-74
2022/05/18 00:03:05;;;;;;;9.55;7.22;;;;;;;15.68;100.00;101294.59;5242517;28;20032;-75
2022/05/18 00:05:38;;;;;;;10.75;7.53;;;;;;;15.46;100.00;101293.84;5228565;28;20025;-75
2022/05/18 00:08:10;;;;;;;9.40;7.53;;;;;;;15.41;100.00;101301.13;5236188;28;20035;-75
2022/05/18 00:10:43;;;;;;;10.90;7.72;;;;;;;15.52;100.00;101303.28;5237284;28;20032;-75
2022/05/18 00:13:14;;;;;;;9.13;6.95;;;;;;;15.69;100.00;101295.47;5233484;28;20524;-76
2022/05/18 00:15:45;;;;;;;8.40;6.60;;;;;;;15.82;100.00;101302.75;5239889;28;20024;-75
2022/05/18 00:18:16;;;;;;;8.00;6.20;;;;;;;15.83;100.00;101299.19;5242423;28;20183;-75
2022/05/18 00:20:46;;;;;;;8.70;6.40;;;;;;;15.83;100.00;101301.81;5232808;28;20107;-76
2022/05/18 00:23:16;;;;;;;8.77;6.85;;;;;;;15.84;100.00;101303.53;5241396;28;20135;-75
2022/05/18 00:25:46;;;;;;;10.90;7.70;;;;;;;15.83;100.00;101299.19;5238246;28;20081;-75
2022/05/18 00:28:17;;;;;;;12.20;8.15;;;;;;;15.88;100.00;101297.19;5238466;28;20271;-75
2022/05/18 00:30:48;;;;;;;9.82;7.43;;;;;;;15.90;100.00;101303.25;5246109;28;20108;-75
2022/05/18 00:33:19;;;;;;;11.18;8.02;;;;;;;15.85;100.00;101299.97;5243155;28;20033;-74
2022/05/18 00:35:50;;;;;;;10.70;8.50;;;;;;;15.78;100.00;101300.31;5226849;28;20016;-75
2022/05/18 00:38:20;;;;;;;12.23;8.13;;;;;;;15.56;100.00;101304.84;5234504;28;20390;-75
2022/05/18 00:40:51;;;;;;;13.73;8.52;;;;;;;15.43;100.00;101307.16;5238514;28;20024;-75
2022/05/18 00:43:30;;;;;;;11.75;7.32;;;;;;;15.51;100.00;101307.66;5243731;28;20029;-74
2022/05/18 00:46:04;;;;;;;11.05;7.97;;;;;;;15.63;100.00;101299.22;5241864;28;20520;-75
2022/05/18 00:48:37;;;;;;;10.55;7.50;;;;;;;15.61;100.00;101302.84;5247133;28;20038;-75
2022/05/18 00:51:15;;;;;;;10.25;7.68;;;;;;;15.50;100.00;101299.84;5240063;28;20485;-74
2022/05/18 00:53:54;;;;;;;11.82;7.97;;;;;;;15.51;100.00;101297.13;5243181;28;20032;-74
2022/05/18 00:56:32;;;;;;;12.27;8.50;;;;;;;15.40;100.00;101304.63;5225363;28;20033;-75
2022/05/18 00:59:08;;;;;;;10.93;8.77;;;;;;;15.34;100.00;101310.19;5246739;28;20252;-75
2022/05/18 01:01:39;;;;;;;12.85;7.97;;;;;;;15.47;100.00;101307.88;5225698;28;20400;-75
2022/05/18 01:04:12;;;;;;;10.20;8.27;;;;;;;15.70;100.00;101298.03;5226080;28;20049;-75
2022/05/18 01:06:57;;;;;;;10.90;7.78;;;;;;;15.63;100.00;101304.50;5245078;28;20092;-75
2022/05/18 01:09:37;;;;;;;9.45;7.00;;;;;;;15.61;100.00;101306.34;5224292;28;20044;-75
2022/05/18 01:12:10;;;;;;;12.55;8.07;;;;;;;15.58;100.00;101303.88;5243521;28;20024;-75
2022/05/18 01:14:52;;;;;;;10.38;7.93;;;;;;;15.50;100.00;101305.97;5240247;28;20086;-75
2022/05/18 01:17:25;;;;;;;12.82;9.60;;;;;;;15.48;100.00;101315.72;5243004;28;20051;-75
2022/05/18 01:19:58;;;;;;;11.55;9.63;;;;;;;15.46;100.00;101309.66;5244222;28;20399;-75
2022/05/18 01:23:04;;;;;;;12.57;9.95;;;;;;;15.40;100.00;101315.19;5241656;28;20112;-75
2022/05/18 01:26:02;;;;;;;12.38;9.57;;;;;;;15.32;100.00;101312.03;5227701;28;20028;-75
2022/05/18 01:28:38;;;;;;;12.00;9.77;;;;;;;15.39;100.00;101318.72;5239626;28;20029;-75
2022/05/18 01:31:08;;;;;;;11.77;9.65;;;;;;;15.45;100.00;101318.50;5243124;28;20046;-76
2022/05/18 01:33:39;;;;;;;12.95;9.57;;;;;;;15.45;100.00;101323.75;5239424;28;20033;-74
2022/05/18 01:36:09;;;;;;;16.15;11.48;;;;;;;15.31;100.00;101320.84;5246378;28;20063;-76
2022/05/18 01:38:40;;;;;;;14.07;10.77;;;;;;;15.42;100.00;101318.63;5239217;28;20020;-75
2022/05/18 01:41:21;;;;;;;14.90;12.27;;;;;;;15.33;100.00;101329.53;5220373;28;20112;-76
2022/05/18 01:43:59;;;;;;;13.43;10.98;;;;;;;15.31;100.00;101327.88;5225077;28;20016;-76
2022/05/18 01:46:31;;;;;;;12.93;10.95;;;;;;;15.32;100.00;101329.63;5265677;28;20490;-75
2022/05/18 01:49:02;;;;;;;15.45;12.00;;;;;;;15.26;100.00;101335.97;5234648;28;20047;-75
2022/05/18 01:51:37;;;;;;;16.30;11.77;;;;;;;15.22;100.00;101326.47;5238747;28;20116;-75
2022/05/18 01:54:07;;;;;;;14.90;12.53;;;;;;;15.15;100.00;101329.47;5241009;28;20031;-75
2022/05/18 01:56:37;;;;;;;17.27;11.97;;;;;;;14.98;100.00;101324.88;5238250;28;20267;-75
2022/05/18 01:59:08;;;;;;;13.82;11.10;;;;;;;15.06;100.00;101327.19;5242710;28;20316;-75
2022/05/18 02:01:39;;;;;;;16.45;11.30;;;;;;;14.98;100.00;101329.31;5234575;28;20064;-75
2022/05/18 02:04:10;;;;;;;14.70;11.00;;;;;;;14.81;100.00;101326.50;5226253;28;20107;-75
2022/05/18 02:06:41;;;;;;;13.45;10.77;;;;;;;14.77;100.00;101327.53;5237329;28;20493;-75
2022/05/18 02:09:16;;;;;;;15.55;11.07;;;;;;;14.62;100.00;101324.66;5267339;28;20028;-75
2022/05/18 02:11:46;;;;;;;13.60;9.48;;;;;;;14.59;100.00;101322.16;5267658;28;20359;-74
2022/05/18 02:14:17;;;;;;;11.03;9.00;;;;;;;14.51;100.00;101332.13;5267801;28;20039;-75
2022/05/18 02:16:48;;;;;;;10.70;8.05;;;;;;;14.58;100.00;101325.72;5259145;28;20358;-75
2022/05/18 02:19:19;;;;;;;10.90;8.13;;;;;;;14.52;100.00;101320.69;5267585;28;20028;-75
2022/05/18 02:21:50;;;;;;;9.10;7.55;;;;;;;14.56;100.00;101324.94;5245812;28;20017;-75
2022/05/18 02:24:20;;;;;;;9.13;7.43;;;;;;;14.68;100.00;101327.03;5229780;28;20029;-75
2022/05/18 02:26:50;;;;;;;9.65;7.43;;;;;;;14.63;100.00;101327.22;5229357;28;20036;-75
2022/05/18 02:29:21;;;;;;;10.63;8.03;;;;;;;14.56;100.00;101322.28;5225801;28;20036;-75
2022/05/18 02:31:51;;;;;;;11.32;8.85;;;;;;;14.55;100.00;101326.69;5225209;28;20271;-75
2022/05/18 02:34:21;;;;;;;11.77;9.30;;;;;;;14.44;100.00;101328.88;5225542;28;20033;-75
2022/05/18 02:36:52;;;;;;;14.10;10.40;;;;;;;14.59;100.00;101333.53;5229048;28;20020;-74
2022/05/18 02:39:22;;;;;;;14.20;11.13;;;;;;;14.60;100.00;101323.88;5230748;28;20095;-75
2022/05/18 02:41:53;;;;;;;15.77;11.85;;;;;;;14.65;100.00;101335.94;5235468;28;20517;-76
2022/05/18 02:44:23;;;;;;;15.63;12.30;;;;;;;14.83;100.00;101322.88;5254732;28;20107;-76
2022/05/18 02:46:57;;;;;;;15.50;11.88;;;;;;;14.82;100.00;101332.63;5222231;28;20100;-75
2022/05/18 02:49:28;;;;;;;17.05;12.73;;;;;;;14.90;100.00;101323.47;5224910;28;20020;-75
2022/05/18 02:51:58;;;;;;;18.30;12.77;;;;;;;14.95;100.00;101318.88;5236131;28;20417;-75
2022/05/18 02:57:19;;;;;;;19.60;14.90;;;;;;;15.28;100.00;101313.06;5245663;28;20397;-75
2022/05/18 02:59:49;;;;;;;18.98;14.05;;;;;;;15.38;100.00;101311.75;5237381;28;20036;-74
2022/05/18 03:02:20;;;;;;;17.33;14.15;;;;;;;15.45;100.00;101312.34;5236590;28;20381;-75
2022/05/18 03:04:50;;;;;;;18.30;14.07;;;;;;;15.29;100.00;101316.56;5237405;28;20028;-75
2022/05/18 03:07:20;;;;;;;17.80;14.85;;;;;;;15.24;100.00;101319.38;5229630;28;20048;-74
2022/05/18 03:09:51;;;;;;;20.23;15.30;;;;;;;15.19;100.00;101320.50;5241681;28;20387;-75
2022/05/18 03:12:21;;;;;;;19.60;15.83;;;;;;;15.27;100.00;101323.66;5235856;28;20040;-75
2022/05/18 03:14:51;;;;;;;17.98;15.90;;;;;;;15.31;100.00;101325.25;5225315;28;20294;-76
2022/05/18 03:17:22;;;;;;;20.55;16.65;;;;;;;15.24;100.00;101324.66;5224761;28;20370;-75
2022/05/18 03:19:52;;;;;;;21.90;17.73;;;;;;;15.25;100.00;101326.38;5225388;28;20028;-75
2022/05/18 03:25:11;;;;;;;22.92;17.88;;;;;;;15.31;100.00;101331.41;5233188;28;20546;-74
2022/05/18 03:27:43;;;;;;;24.85;18.90;;;;;;;15.30;100.00;101342.84;5223169;28;20052;-75
2022/05/18 03:30:14;;;;;;;23.58;18.15;;;;;;;15.42;100.00;101342.34;5240202;28;20474;-75
2022/05/18 03:32:44;;;;;;;23.58;18.60;;;;;;;15.41;100.00;101350.28;5259761;28;20107;-75
2022/05/18 03:35:15;;;;;;;22.42;18.42;;;;;;;15.47;100.00;101345.63;5247675;28;20486;-75
2022/05/18 03:37:45;;;;;;;25.50;18.63;;;;;;;15.64;100.00;101343.09;5226265;28;20098;-75
2022/05/18 03:40:16;;;;;;;25.83;17.77;;;;;;;15.66;100.00;101349.16;5240239;28;20276;-74
2022/05/18 03:42:46;;;;;;;23.73;18.03;;;;;;;15.71;100.00;101349.81;5245417;28;20493;-74
2022/05/18 03:45:16;;;;;;;24.03;17.10;;;;;;;15.58;100.00;101345.16;5244099;28;20633;-75
2022/05/18 03:47:46;;;;;;;21.42;18.52;;;;;;;15.58;100.00;101347.78;5253059;28;20635;-75
2022/05/18 03:50:17;;;;;;;26.63;19.23;;;;;;;15.55;100.00;101348.75;5253386;28;20028;-74
2022/05/18 03:52:48;;;;;;;24.83;18.75;;;;;;;15.56;100.00;101355.75;5270433;28;20270;-75
2022/05/18 03:55:18;;;;;;;24.10;18.83;;;;;;;15.48;100.00;101355.25;5252261;28;20527;-75
2022/05/18 03:57:48;;;;;;;22.97;18.50;;;;;;;15.60;100.00;101356.47;5245864;28;20050;-75
2022/05/18 04:00:19;;;;;;;23.08;19.20;;;;;;;15.56;100.00;101358.38;5222514;28;20275;-75
2022/05/18 04:02:50;;;;;;;24.10;19.23;;;;;;;15.71;100.00;101363.00;5269971;28;20388;-75
2022/05/18 04:05:20;;;;;;;23.52;19.77;;;;;;;15.67;100.00;101361.41;5261678;28;20016;-75
2022/05/18 04:07:51;;;;;;;27.27;20.73;;;;;;;15.69;100.00;101359.56;5234901;28;20031;-75
2022/05/18 04:10:21;;;;;;;24.38;19.27;;;;;;;15.81;100.00;101363.44;5254536;28;20024;-75
2022/05/18 04:12:52;;;;;;;25.73;19.80;;;;;;;15.92;100.00;101356.78;5251556;28;20036;-75
2022/05/18 04:15:22;;;;;;;26.25;19.42;;;;;;;15.97;100.00;101357.44;5252609;28;20505;-76
2022/05/18 04:17:53;;;;;;;24.75;18.77;;;;;;;16.04;100.00;101355.38;5252880;28;20028;-75
2022/05/18 04:20:23;;;;;;;25.33;19.77;;;;;;;15.96;100.00;101370.66;5236340;28;20024;-75
2022/05/18 04:22:54;;;;;;;21.33;18.33;;;;;;;16.08;100.00;101360.41;5241260;28;20028;-75
2022/05/18 04:25:27;;;;;;;25.88;17.98;;;;;;;16.15;100.00;101364.50;5220731;28;20025;-75
2022/05/18 04:27:57;;;;;;;24.42;17.95;;;;;;;16.15;100.00;101363.63;5239897;28;20028;-74
2022/05/18 04:30:27;;;;;;;23.58;18.95;;;;;;;16.24;100.00;101360.59;5239738;28;20025;-75
2022/05/18 04:32:58;;;;;;;21.15;18.25;;;;;;;16.32;100.00;101364.59;5250278;28;20092;-75
2022/05/18 04:35:29;;;;;;;20.65;17.05;;;;;;;16.42;100.00;101359.75;5253883;28;20480;-75
2022/05/18 04:37:59;;;;;;;21.10;17.23;;;;;;;16.59;100.00;101360.66;5246734;28;20024;-75
2022/05/18 04:40:29;;;;;;;20.15;16.05;;;;;;;16.75;100.00;101361.63;5243958;28;20024;-75
2022/05/18 04:43:00;;;;;;;22.48;16.38;;;;;;;16.72;100.00;101366.22;5237432;28;20025;-75
2022/05/18 04:45:30;;;;;;;22.33;16.08;;;;;;;16.89;100.00;101367.13;5244166;28;20098;-75
2022/05/18 04:48:00;;;;;;;18.88;14.90;;;;;;;17.00;100.00;101367.44;5260805;28;20154;-75
2022/05/18 04:50:31;;;;;;;18.92;14.90;;;;;;;17.41;100.00;101374.19;5252804;28;20443;-75
2022/05/18 04:53:01;;;;;;;18.85;13.30;;;;;;;17.87;100.00;101390.28;5257254;28;20021;-75
2022/05/18 04:55:32;;;;;;;18.25;13.05;;;;;;;17.91;100.00;101390.94;5244984;28;20028;-75
2022/05/18 04:58:03;;;;;;;16.00;12.97;;;;;;;17.66;100.00;101388.72;5236606;28;20099;-75
2022/05/18 05:00:33;;;;;;;17.10;13.07;;;;;;;17.35;100.00;101382.44;5255857;28;20285;-75
2022/05/18 05:03:04;;;;;;;18.67;14.80;;;;;;;17.34;100.00;101389.50;5248864;28;20025;-75
2022/05/18 05:05:34;;;;;;;18.75;13.05;;;;;;;17.43;100.00;101396.09;5259453;28;20461;-75
2022/05/18 05:08:05;;;;;;;16.38;12.65;;;;;;;17.52;100.00;101393.00;5268764;28;20024;-75
2022/05/18 05:10:35;;;;;;;16.95;13.90;;;;;;;17.41;100.00;101390.91;5251124;28;20054;-75
2022/05/18 05:13:05;;;;;;;18.33;13.50;;;;;;;17.54;100.00;101399.94;5225832;28;20026;-76
2022/05/18 05:15:37;;;;;;;17.65;12.75;;;;;;;17.52;100.00;101398.31;5250905;28;20020;-74
2022/05/18 05:18:07;;;;;;;16.40;12.48;;;;;;;17.62;100.00;101394.28;5267981;28;20020;-75
2022/05/18 05:20:38;;;;;;;18.17;13.30;;;;;;;17.71;100.00;101391.13;5233758;28;20025;-75
2022/05/18 05:23:09;;;;;;;16.00;12.70;;;;;;;17.77;100.00;101388.16;5231069;28;20032;-75
2022/05/18 05:25:39;;;;;;;20.92;12.88;;;;;;;17.87;100.00;101392.06;5241696;28;20016;-74
2022/05/18 05:28:09;;;;;;;19.90;13.17;;;;;;;18.22;100.00;101391.03;5241324;28;20545;-75
2022/05/18 05:30:40;;;;;;;16.17;13.02;;;;;;;18.52;100.00;101378.81;5238477;28;20678;-73
2022/05/18 05:33:11;;;;;;;18.83;11.75;;;;;;;18.88;100.00;101389.06;5241854;28;20028;-74
2022/05/18 05:35:42;;;;;;;17.50;12.25;;;;;;;18.88;100.00;101383.75;5267098;28;20016;-75
2022/05/18 05:38:13;;;;;;;15.63;12.38;;;;;;;18.85;100.00;101383.94;5240946;28;20024;-75
2022/05/18 05:40:43;;;;;;;17.10;12.75;;;;;;;18.85;100.00;101380.41;5250788;28;20039;-74
2022/05/18 05:43:13;;;;;;;15.52;12.15;;;;;;;18.92;100.00;101392.38;5247406;28;20118;-75
2022/05/18 05:45:54;;;;;;;15.75;12.35;;;;;;;19.29;100.00;101382.25;5225306;28;20401;-75
2022/05/18 05:48:26;;;;;;;16.52;11.90;;;;;;;19.90;100.00;101382.97;5234106;28;20028;-76
2022/05/18 05:50:58;;;;;;;14.95;11.50;;;;;;;20.22;100.00;101378.34;5249640;28;20389;-75
2022/05/18 05:53:28;;;;;;;18.30;12.05;;;;;;;20.40;98.90;101383.38;5235360;28;20050;-74
2022/05/18 05:55:59;;;;;;;16.15;11.70;;;;;;;20.09;100.00;101383.56;5238984;28;20074;-74
2022/05/18 05:58:33;;;;;;;20.02;11.45;;;;;;;19.96;100.00;101387.88;5233919;28;20582;-76
2022/05/18 06:01:07;;;;;;;15.73;11.98;;;;;;;20.06;100.00;101393.50;5229425;28;20171;-75
2022/05/18 06:03:39;;;;;;;16.92;11.85;;;;;;;20.42;100.00;101380.59;5226122;28;20466;-75
2022/05/18 06:06:10;;;;;;;16.48;11.98;;;;;;;20.68;98.86;101384.16;5225922;28;20033;-75
2022/05/18 06:08:41;;;;;;;16.30;11.93;;;;;;;20.46;99.19;101388.28;5225686;28;20029;-75
2022/05/18 06:11:11;;;;;;;18.10;11.80;;;;;;;20.38;99.68;101390.56;5232580;28;20032;-74
2022/05/18 06:13:42;;;;;;;15.73;11.80;;;;;;;20.35;100.00;101396.09;5244347;28;20032;-74
2022/05/18 06:16:12;;;;;;;14.30;11.25;;;;;;;20.22;100.00;101389.81;5225320;28;20505;-74
2022/05/18 06:18:43;;;;;;;16.37;11.50;;;;;;;20.13;100.00;101400.16;5234944;28;20095;-75
2022/05/18 06:21:13;;;;;;;16.27;12.27;;;;;;;20.55;99.75;101387.72;5240193;28;20274;-75
2022/05/18 06:23:43;;;;;;;17.25;11.68;;;;;;;20.95;96.22;101397.50;5256943;28;20302;-76
2022/05/18 06:26:14;;;;;;;15.50;11.18;;;;;;;21.12;96.99;101392.81;5236501;28;20039;-74
2022/05/18 06:28:44;;;;;;;19.90;11.65;;;;;;;21.29;95.58;101391.66;5241288;28;20625;-75
2022/05/18 06:31:15;;;;;;;15.03;10.77;;;;;;;21.69;93.53;101378.28;5239468;28;20056;-75
2022/05/18 06:33:45;;;;;;;15.43;11.05;;;;;;;21.46;93.74;101388.72;5233620;28;20293;-75
2022/05/18 06:36:16;;;;;;;13.63;10.63;;;;;;;21.90;94.07;101383.94;5232869;28;20025;-75
2022/05/18 06:38:46;;;;;;;16.38;10.90;;;;;;;22.40;90.07;101383.94;5234194;28;20477;-75
2022/05/18 06:41:25;;;;;;;11.10;9.37;;;;;;;23.05;88.24;101370.97;5237908;28;20033;-73
2022/05/18 06:43:58;;;;;;;13.18;9.70;;;;;;;22.64;88.84;101379.47;5232575;28;20270;-75
2022/05/18 06:46:31;;;;;;;12.23;9.68;;;;;;;22.92;86.13;101386.22;5223266;28;20426;-76
2022/05/18 06:49:03;;;;;;;10.80;8.30;;;;;;;23.96;83.80;101372.91;5239260;28;20376;-74
2022/05/18 06:51:37;;;;;;;11.38;8.30;;;;;;;24.71;80.60;101372.19;5245804;28;20025;-76
2022/05/18 06:54:07;;;;;;;12.07;7.90;;;;;;;24.37;79.91;101379.34;5239957;28;20024;-74
2022/05/18 06:56:41;;;;;;;10.70;7.60;;;;;;;24.70;77.72;101371.31;5243261;28;20077;-77
2022/05/18 06:59:13;;;;;;;11.30;7.38;;;;;;;24.48;79.46;101376.69;5242375;28;20052;-73
2022/05/18 07:01:43;;;;;;;12.98;8.10;;;;;;;24.37;79.25;101387.38;5242353;28;20051;-72
2022/05/18 07:04:14;;;;;;;10.35;7.18;;;;;;;24.18;79.44;101388.97;5248080;28;20508;-74
2022/05/18 07:06:45;;;;;;;9.75;7.30;;;;;;;24.46;79.20;101393.81;5250225;28;20026;-74
2022/05/18 07:09:19;;;;;;;11.18;7.22;;;;;;;23.62;80.17;101400.47;5265956;28;20035;-74
2022/05/18 07:11:50;;;;;;;9.48;6.80;;;;;;;25.02;76.80;101398.97;5241176;28;20443;-73
2022/05/18 07:14:23;;;;;;;11.90;6.97;;;;;;;24.58;78.17;101406.25;5247377;28;20044;-75
2022/05/18 07:16:55;;;;;;;10.25;6.03;;;;;;;25.01;75.92;101407.97;5236157;28;20017;-75
2022/05/18 07:19:29;;;;;;;10.30;6.15;;;;;;;24.86;78.61;101409.22;5242332;28;20025;-75
2022/05/18 07:21:59;;;;;;;9.35;6.47;;;;;;;23.91;81.32;101409.81;5247146;28;20031;-74
2022/05/18 07:24:29;;;;;;;11.25;7.18;;;;;;;23.30;81.54;101410.94;5239182;28;20035;-75
2022/05/18 07:27:00;;;;;;;8.97;7.47;;;;;;;22.71;87.35;101410.91;5237392;28;20083;-75
2022/05/18 07:29:30;;;;;;;11.05;7.57;;;;;;;22.64;85.41;101419.47;5242961;28;20032;-74
2022/05/18 07:32:12;;;;;;;12.75;7.60;;;;;;;22.42;86.36;101413.97;5261539;28;20027;-74
2022/05/18 07:34:44;;;;;;;10.20;7.88;;;;;;;22.03;87.71;101414.91;5270150;28;20396;-74
2022/05/18 07:37:16;;;;;;;10.40;8.48;;;;;;;22.18;86.75;101420.97;5259267;28;20059;-74
2022/05/18 07:39:46;;;;;;;9.77;7.57;;;;;;;21.89;87.83;101424.81;5255724;28;20051;-74
2022/05/18 07:42:16;;;;;;;11.03;8.33;;;;;;;21.86;89.40;101419.69;5232383;28;20457;-74
2022/05/18 07:44:47;;;;;;;10.35;7.90;;;;;;;22.47;87.25;101419.81;5241414;28;20270;-74
2022/05/18 07:47:20;;;;;;;13.50;8.75;;;;;;;22.60;86.68;101418.81;5242596;28;20107;-73
2022/05/18 07:49:52;;;;;;;11.35;8.10;;;;;;;22.69;84.91;101415.50;5245423;28;20071;-73
2022/05/18 07:52:22;;;;;;;12.50;8.13;;;;;;;23.36;83.51;101407.78;5245239;28;20104;-74
2022/05/18 07:54:52;;;;;;;10.27;7.97;;;;;;;24.54;79.05;101405.63;5237217;28;20024;-74
2022/05/18 07:57:23;;;;;;;10.13;7.32;;;;;;;26.20;75.50;101402.16;5235311;28;20032;-74
2022/05/18 07:59:59;;;;;;;9.70;7.43;;;;;;;26.68;73.04;101402.41;5234997;28;20074;-74
2022/05/18 08:02:32;;;;;;;8.38;6.88;;;;;;;26.43;71.94;101398.34;5247175;28;20085;-74
2022/05/18 08:05:03;;;;;;;10.25;7.30;;;;;;;26.82;71.78;101406.41;5242182;28;20009;-74
2022/05/18 08:07:34;;;;;;;9.43;6.95;;;;;;;26.49;71.58;101402.34;5248087;28;20516;-74
2022/05/18 08:15:43;;;;;;;8.55;6.20;;;;;;;27.51;68.67;101397.31;5236383;28;20577;-74
2022/05/18 08:18:15;;;;;;;10.02;6.78;;;;;;;27.26;70.55;101395.19;5241605;28;20033;-74
2022/05/18 08:20:46;;;;;;;8.73;6.25;;;;;;;27.71;69.37;101390.06;5227955;28;20053;-74
2022/05/18 08:23:17;;;;;;;10.15;6.25;;;;;;;28.42;68.00;101393.03;5242886;28;20436;-74
2022/05/18 08:25:47;;;;;;;10.18;6.63;;;;;;;29.25;67.64;101390.97;5228619;28;20021;-74
2022/05/18 08:28:17;;;;;;;8.95;6.00;;;;;;;29.41;66.46;101391.97;5240550;28;20077;-73
2022/05/18 08:30:48;;;;;;;9.60;5.77;;;;;;;29.16;65.61;101397.28;5232791;28;20215;-74
2022/05/18 08:33:18;;;;;;;8.90;5.57;;;;;;;29.00;64.75;101400.66;5238361;28;20346;-75
2022/05/18 08:35:48;;;;;;;8.02;5.88;;;;;;;28.76;66.43;101394.13;5243015;28;20033;-74
2022/05/18 08:38:19;;;;;;;7.97;5.72;;;;;;;27.65;68.63;101402.22;5244731;28;20043;-74
2022/05/18 08:41:10;;;;;;;9.18;5.95;;;;;;;28.20;66.76;101397.91;5243054;28;20604;-74
2022/05/18 08:43:44;;;;;;;7.93;6.22;;;;;;;28.07;67.29;101390.16;5225565;28;20116;-74
2022/05/18 08:46:47;;;;;;;7.88;5.88;;;;;;;28.55;67.86;101398.91;5232115;28;20382;-74
2022/05/18 08:49:31;;;;;;;10.13;6.22;;;;;;;28.36;67.16;101399.00;5231128;28;20048;-74
2022/05/18 08:52:14;;;;;;;11.75;6.28;;;;;;;29.50;65.38;101393.78;5242214;28;20169;-74
2022/05/18 08:55:22;;;;;;;8.75;6.10;;;;;;;27.72;68.12;101398.03;5233158;28;20479;-75
2022/05/18 08:57:55;;;;;;;7.60;5.85;;;;;;;27.80;68.52;101395.44;5219924;28;20021;-74
2022/05/18 09:00:36;;;;;;;7.97;5.70;;;;;;;28.37;67.62;101394.47;5224440;28;20062;-74
2022/05/18 09:03:28;;;;;;;9.30;5.22;;;;;;;27.42;67.64;101398.16;5229329;28;20022;-74
2022/05/18 09:06:04;;;;;;;7.15;4.70;;;;;;;28.91;64.94;101385.41;5243319;28;20040;-75
2022/05/18 09:08:38;;;;;;;6.03;4.55;;;;;;;29.29;65.52;101382.44;5246557;28;20035;-74
2022/05/18 09:11:14;;;;;;;8.80;4.40;;;;;;;27.65;66.32;101391.47;5242981;28;20032;-74
2022/05/18 09:13:44;;;;;;;7.10;3.92;;;;;;;28.34;65.63;101382.16;5226316;28;20079;-74
2022/05/18 09:16:20;;;;;;;5.07;3.67;;;;;;;28.74;63.88;101378.13;5225519;28;20024;-74
2022/05/18 09:19:21;;;;;;;6.68;3.58;;;;;;;29.45;65.62;101376.34;5225417;28;20059;-74
2022/05/18 09:22:10;;;;;;;5.35;2.92;;;;;;;29.67;62.50;101371.34;5240872;28;20035;-74
2022/05/18 09:25:14;;;;;;;5.40;3.70;;;;;;;29.80;64.47;101370.91;5232870;28;20021;-74
2022/05/18 09:27:58;;;;;;;6.55;3.80;;;;;;;29.39;62.12;101368.91;5233607;28;20036;-74
2022/05/18 09:31:01;;;;;;;6.55;3.53;;;;;;;28.93;63.35;101367.25;5240786;28;20498;-74
2022/05/18 09:33:55;;;;;;;7.47;3.70;;;;;;;28.35;65.14;101370.41;5242681;28;20106;-74
2022/05/18 09:36:31;;;;;;;4.85;3.20;;;;;;;28.63;66.75;101357.81;5226301;28;20488;-74
2022/05/18 09:39:10;;;;;;;6.53;3.40;;;;;;;29.70;62.25;101353.97;5249946;28;20100;-75
2022/05/18 09:41:46;;;;;;;6.72;3.13;;;;;;;29.42;65.01;101361.31;5241919;28;20397;-74
2022/05/18 09:44:25;;;;;;;5.80;2.97;;;;;;;30.57;62.46;101363.63;5242023;28;20107;-73
2022/05/18 09:46:57;;;;;;;6.00;3.58;;;;;;;29.74;62.93;101355.38;5247755;28;20020;-74
2022/05/18 09:49:40;;;;;;;6.22;3.65;;;;;;;28.95;64.93;101364.41;5234757;28;20060;-74
2022/05/18 09:52:12;;;;;;;5.53;4.22;;;;;;;28.01;66.94;101369.25;5235169;28;20033;-74
2022/05/18 09:54:42;;;;;;;10.60;5.00;;;;;;;28.47;66.49;101357.63;5216991;28;20025;-74
2022/05/18 09:57:23;;;;;;;7.68;4.45;;;;;;;28.78;64.39;101363.38;5231209;28;20487;-73
2022/05/18 09:59:57;;;;;;;6.00;3.90;;;;;;;28.19;66.84;101362.09;5231680;28;20024;-74
2022/05/18 10:08:23;;;;;;;8.90;4.10;;;;;;;28.06;68.02;101364.28;5243326;28;20304;-74
2022/05/18 10:11:07;;;;;;;7.95;4.20;;;;;;;27.30;68.71;101366.22;5240219;28;20027;-74
2022/05/18 10:13:52;;;;;;;8.80;4.00;;;;;;;27.32;72.15;101365.09;5237420;28;20063;-74
2022/05/18 10:16:41;;;;;;;5.15;3.60;;;;;;;27.36;70.38;101358.44;5222368;28;20024;-74
2022/05/18 10:19:37;;;;;;;6.78;4.25;;;;;;;27.02;69.78;101356.28;5241584;28;20051;-73
2022/05/18 10:22:10;;;;;;;8.95;4.28;;;;;;;27.26;72.38;101346.00;5228979;28;20036;-73
2022/05/18 10:24:44;;;;;;;6.13;3.58;;;;;;;26.98;72.48;101347.66;5236829;28;20130;-73
2022/05/18 10:27:14;;;;;;;7.72;4.13;;;;;;;26.83;73.17;101357.13;5233343;28;20497;-73
2022/05/18 10:30:14;;;;;;;5.33;3.50;;;;;;;26.35;71.94;101346.38;5238424;28;20031;-74
2022/05/18 10:33:07;;;;;;;7.40;3.92;;;;;;;26.76;72.35;101345.22;5213540;28;20283;-73
2022/05/18 10:35:49;;;;;;;7.43;3.65;;;;;;;26.94;71.91;101345.41;5241085;28;20036;-74
2022/05/18 10:38:28;;;;;;;7.22;3.60;;;;;;;26.83;70.64;101338.34;5242703;28;20489;-74
2022/05/18 10:41:02;;;;;;;5.15;3.50;;;;;;;26.75;71.35;101346.22;5220482;28;20051;-74
2022/05/18 10:43:44;;;;;;;5.25;3.35;;;;;;;27.18;71.05;101338.66;5245801;28;20030;-73
2022/05/18 10:46:26;;;;;;;5.60;3.35;;;;;;;27.06;71.69;101345.13;5243333;28;20497;-73
2022/05/18 10:49:24;;;;;;;5.35;3.10;;;;;;;26.86;71.59;101337.19;5243473;28;20046;-74
2022/05/18 10:51:55;;;;;;;6.03;2.95;;;;;;;27.05;71.23;101334.50;5247011;28;20103;-73
2022/05/18 10:54:30;;;;;;;6.07;3.33;;;;;;;27.10;70.13;101337.66;5227203;28;20551;-74
2022/05/18 10:57:14;;;;;;;6.70;3.42;;;;;;;26.88;71.40;101333.38;5226075;28;20146;-74
2022/05/18 10:59:44;;;;;;;6.38;3.03;;;;;;;27.07;72.72;101322.66;5242514;28;20107;-74
2022/05/18 11:02:17;;;;;;;5.63;2.70;;;;;;;27.41;68.75;101329.31;5242521;28;20029;-73
2022/05/18 11:05:12;;;;;;;4.65;2.80;;;;;;;27.10;68.97;101326.94;5226462;28;20279;-74
2022/05/18 11:07:44;;;;;;;6.00;2.88;;;;;;;27.12;69.34;101319.59;5244188;28;20052;-73
2022/05/18 11:10:15;;;;;;;7.90;2.95;;;;;;;27.05;71.20;101323.78;5210443;28;20309;-73
2022/05/18 11:12:46;;;;;;;4.28;2.53;;;;;;;26.88;69.21;101316.41;5239839;28;20036;-74
2022/05/18 11:15:22;;;;;;;5.50;3.13;;;;;;;27.06;72.21;101317.41;5247110;28;20039;-73
2022/05/18 11:17:58;;;;;;;5.90;3.08;;;;;;;27.14;71.07;101310.38;5242480;28;20024;-74
2022/05/18 11:20:44;;;;;;;7.32;2.83;;;;;;;26.97;70.36;101308.38;5246654;28;20123;-74
2022/05/18 11:23:26;;;;;;;4.40;2.63;;;;;;;27.18;71.18;101303.75;5248290;28;20035;-73
2022/05/18 11:26:22;;;;;;;4.32;2.40;;;;;;;26.96;68.49;101303.16;5233752;28;20073;-73
2022/05/18 11:29:08;;;;;;;7.03;2.70;;;;;;;26.84;68.93;101302.47;5230767;28;20513;-74
2022/05/18 11:32:04;;;;;;;4.47;2.60;;;;;;;27.24;69.63;101296.97;5239273;28;20107;-74
2022/05/18 11:34:59;;;;;;;4.55;2.25;;;;;;;27.13;69.87;101300.63;5239921;28;20033;-74
2022/05/18 11:37:39;;;;;;;6.45;2.72;;;;;;;26.99;71.76;101295.69;5241214;28;20448;-73
2022/05/18 11:40:46;;;;;;;5.60;3.05;;;;;;;26.74;70.11;101295.38;5244194;28;20479;-74
2022/05/18 11:43:30;;;;;;;5.85;2.75;;;;;;;26.90;71.57;101301.88;5238639;28;20016;-74
2022/05/18 11:46:13;;;;;;;4.72;2.53;;;;;;;27.10;71.12;101289.34;5242116;28;20035;-73
2022/05/18 11:49:00;;;;;;;5.32;2.60;;;;;;;27.16;71.46;101286.09;5227861;28;20056;-73
2022/05/18 11:51:55;;;;;;;6.75;2.50;;;;;;;26.88;70.49;101295.81;5231375;28;20024;-74
2022/05/18 11:54:25;;;;;;;5.15;2.40;;;;;;;26.73;70.69;101291.84;5236791;28;20040;-74
2022/05/18 11:57:08;;;;;;;4.43;2.17;;;;;;;26.67;69.87;101293.41;5224557;28;20024;-73
2022/05/18 12:00:09;;;;;;;5.63;2.20;;;;;;;26.91;69.69;101294.69;5227721;28;20497;-73
2022/05/18 12:02:52;;;;;;;4.45;2.45;;;;;;;26.72;68.18;101296.50;5240640;28;20030;-73